sensor_id;sensor_type;location;lat;lon;timestamp;P1;durP1;ratioP1;P2;durP2;ratioP2
9056;SDS011;4563;54.756;9.400;2022-10-03T00:04:41;13.50;;;1.27;;
9056;SDS011;4563;54.756;9.400;2022-10-03T00:07:26;8.57;;;1.23;;
9056;SDS011;4563;54.756;9.400;2022-10-03T00:10:11;10.23;;;1.63;;
9056;SDS011;4563;54.756;9.400;2022-10-03T00:12:56;5.10;;;1.00;;
9056;SDS011;4563;54.756;9.400;2022-10-03T00:15:32;5.77;;;1.20;;
9056;SDS011;4563;54.756;9.400;2022-10-03T00:18:11;10.83;;;1.07;;
9056;SDS011;4563;54.756;9.400;2022-10-03T00:20:52;10.40;;;1.17;;
9056;SDS011;4563;54.756;9.400;2022-10-03T00:23:33;6.07;;;1.00;;
9056;SDS011;4563;54.756;9.400;2022-10-03T00:26:08;11.83;;;1.90;;
9056;SDS011;4563;54.756;9.400;2022-10-03T00:31:54;7.47;;;1.43;;
9056;SDS011;4563;54.756;9.400;2022-10-03T00:34:31;6.43;;;1.37;;
9056;SDS011;4563;54.756;9.400;2022-10-03T00:37:16;9.37;;;1.43;;
9056;SDS011;4563;54.756;9.400;2022-10-03T00:39:55;9.17;;;1.70;;
9056;SDS011;4563;54.756;9.400;2022-10-03T00:49:52;8.97;;;1.00;;
9056;SDS011;4563;54.756;9.400;2022-10-03T00:52:50;5.67;;;1.20;;
9056;SDS011;4563;54.756;9.400;2022-10-03T00:55:54;11.50;;;1.27;;
9056;SDS011;4563;54.756;9.400;2022-10-03T00:58:51;11.20;;;0.90;;
9056;SDS011;4563;54.756;9.400;2022-10-03T01:01:37;12.97;;;1.30;;
9056;SDS011;4563;54.756;9.400;2022-10-03T01:04:25;7.97;;;1.33;;
9056;SDS011;4563;54.756;9.400;2022-10-03T01:07:14;11.23;;;1.63;;
9056;SDS011;4563;54.756;9.400;2022-10-03T01:10:03;11.23;;;1.20;;
9056;SDS011;4563;54.756;9.400;2022-10-03T01:12:57;14.70;;;1.30;;
9056;SDS011;4563;54.756;9.400;2022-10-03T01:15:37;9.07;;;1.00;;
9056;SDS011;4563;54.756;9.400;2022-10-03T01:18:23;7.63;;;0.97;;
9056;SDS011;4563;54.756;9.400;2022-10-03T01:21:10;9.27;;;1.27;;
9056;SDS011;4563;54.756;9.400;2022-10-03T01:26:56;14.20;;;1.70;;
9056;SDS011;4563;54.756;9.400;2022-10-03T01:32:50;9.80;;;1.20;;
9056;SDS011;4563;54.756;9.400;2022-10-03T01:35:34;7.57;;;1.33;;
9056;SDS011;4563;54.756;9.400;2022-10-03T01:38:25;14.27;;;1.73;;
9056;SDS011;4563;54.756;9.400;2022-10-03T01:40:56;10.50;;;1.27;;
9056;SDS011;4563;54.756;9.400;2022-10-03T01:43:40;14.90;;;1.67;;
9056;SDS011;4563;54.756;9.400;2022-10-03T01:46:20;9.40;;;1.53;;
9056;SDS011;4563;54.756;9.400;2022-10-03T01:49:18;8.73;;;1.30;;
9056;SDS011;4563;54.756;9.400;2022-10-03T01:51:54;13.10;;;1.70;;
9056;SDS011;4563;54.756;9.400;2022-10-03T01:54:36;9.63;;;1.73;;
9056;SDS011;4563;54.756;9.400;2022-10-03T01:57:24;18.33;;;1.70;;
9056;SDS011;4563;54.756;9.400;2022-10-03T02:00:21;11.83;;;1.90;;
9056;SDS011;4563;54.756;9.400;2022-10-03T02:02:54;10.87;;;0.97;;
9056;SDS011;4563;54.756;9.400;2022-10-03T02:05:45;9.87;;;1.40;;
9056;SDS011;4563;54.756;9.400;2022-10-03T02:08:25;15.17;;;1.40;;
9056;SDS011;4563;54.756;9.400;2022-10-03T02:11:06;12.87;;;1.13;;
9056;SDS011;4563;54.756;9.400;2022-10-03T02:14:06;9.37;;;1.67;;
9056;SDS011;4563;54.756;9.400;2022-10-03T02:16:51;14.00;;;1.53;;
9056;SDS011;4563;54.756;9.400;2022-10-03T02:22:29;10.77;;;1.63;;
9056;SDS011;4563;54.756;9.400;2022-10-03T02:25:13;7.60;;;1.13;;
9056;SDS011;4563;54.756;9.400;2022-10-03T02:34:23;11.30;;;2.20;;
9056;SDS011;4563;54.756;9.400;2022-10-03T02:47:07;6.40;;;1.57;;
9056;SDS011;4563;54.756;9.400;2022-10-03T02:57:05;15.10;;;2.33;;
9056;SDS011;4563;54.756;9.400;2022-10-03T03:00:06;9.07;;;1.83;;
9056;SDS011;4563;54.756;9.400;2022-10-03T03:12:15;13.80;;;1.63;;
9056;SDS011;4563;54.756;9.400;2022-10-03T03:18:25;6.37;;;1.23;;
9056;SDS011;4563;54.756;9.400;2022-10-03T03:21:01;6.17;;;1.03;;
9056;SDS011;4563;54.756;9.400;2022-10-03T03:23:44;12.30;;;1.40;;
9056;SDS011;4563;54.756;9.400;2022-10-03T03:26:32;12.53;;;1.93;;
9056;SDS011;4563;54.756;9.400;2022-10-03T03:29:28;6.00;;;1.37;;
9056;SDS011;4563;54.756;9.400;2022-10-03T03:32:07;8.43;;;1.53;;
9056;SDS011;4563;54.756;9.400;2022-10-03T03:34:48;11.67;;;1.30;;
9056;SDS011;4563;54.756;9.400;2022-10-03T03:37:27;10.73;;;1.33;;
9056;SDS011;4563;54.756;9.400;2022-10-03T03:40:06;9.67;;;1.10;;
9056;SDS011;4563;54.756;9.400;2022-10-03T03:43:07;14.40;;;2.27;;
9056;SDS011;4563;54.756;9.400;2022-10-03T03:45:52;8.20;;;1.13;;
9056;SDS011;4563;54.756;9.400;2022-10-03T03:48:40;10.17;;;1.67;;
9056;SDS011;4563;54.756;9.400;2022-10-03T03:54:21;10.23;;;1.27;;
9056;SDS011;4563;54.756;9.400;2022-10-03T03:57:33;12.00;;;1.43;;
9056;SDS011;4563;54.756;9.400;2022-10-03T04:00:21;11.73;;;1.00;;
9056;SDS011;4563;54.756;9.400;2022-10-03T04:03:23;8.93;;;1.13;;
9056;SDS011;4563;54.756;9.400;2022-10-03T04:06:04;7.73;;;1.03;;
9056;SDS011;4563;54.756;9.400;2022-10-03T04:08:52;7.03;;;1.07;;
9056;SDS011;4563;54.756;9.400;2022-10-03T04:11:32;10.13;;;1.33;;
9056;SDS011;4563;54.756;9.400;2022-10-03T04:17:18;8.10;;;0.90;;
9056;SDS011;4563;54.756;9.400;2022-10-03T04:20:16;8.90;;;1.07;;
9056;SDS011;4563;54.756;9.400;2022-10-03T04:22:57;13.80;;;1.23;;
9056;SDS011;4563;54.756;9.400;2022-10-03T04:25:44;7.27;;;1.13;;
9056;SDS011;4563;54.756;9.400;2022-10-03T04:28:26;12.03;;;1.60;;
9056;SDS011;4563;54.756;9.400;2022-10-03T04:31:23;9.37;;;1.57;;
9056;SDS011;4563;54.756;9.400;2022-10-03T04:34:02;7.70;;;1.10;;
9056;SDS011;4563;54.756;9.400;2022-10-03T04:39:43;9.90;;;1.27;;
9056;SDS011;4563;54.756;9.400;2022-10-03T04:45:24;7.40;;;1.17;;
9056;SDS011;4563;54.756;9.400;2022-10-03T04:48:23;8.87;;;1.17;;
9056;SDS011;4563;54.756;9.400;2022-10-03T04:51:01;6.77;;;0.97;;
9056;SDS011;4563;54.756;9.400;2022-10-03T04:53:46;8.67;;;0.90;;
9056;SDS011;4563;54.756;9.400;2022-10-03T04:59:27;10.47;;;1.20;;
9056;SDS011;4563;54.756;9.400;2022-10-03T05:02:02;12.57;;;1.33;;
9056;SDS011;4563;54.756;9.400;2022-10-03T05:04:57;14.20;;;1.47;;
9056;SDS011;4563;54.756;9.400;2022-10-03T05:07:51;6.23;;;1.07;;
9056;SDS011;4563;54.756;9.400;2022-10-03T05:10:36;7.40;;;1.10;;
9056;SDS011;4563;54.756;9.400;2022-10-03T05:13:14;8.83;;;0.70;;
9056;SDS011;4563;54.756;9.400;2022-10-03T05:16:05;3.90;;;0.53;;
9056;SDS011;4563;54.756;9.400;2022-10-03T05:18:43;7.60;;;0.87;;
9056;SDS011;4563;54.756;9.400;2022-10-03T05:21:15;13.20;;;1.43;;
9056;SDS011;4563;54.756;9.400;2022-10-03T05:23:54;6.00;;;0.67;;
9056;SDS011;4563;54.756;9.400;2022-10-03T05:26:34;3.33;;;0.67;;
9056;SDS011;4563;54.756;9.400;2022-10-03T05:29:13;6.77;;;0.80;;
9056;SDS011;4563;54.756;9.400;2022-10-03T05:31:52;6.00;;;0.90;;
9056;SDS011;4563;54.756;9.400;2022-10-03T05:34:32;6.77;;;0.80;;
9056;SDS011;4563;54.756;9.400;2022-10-03T05:37:28;12.33;;;1.20;;
9056;SDS011;4563;54.756;9.400;2022-10-03T05:40:30;9.60;;;1.00;;
9056;SDS011;4563;54.756;9.400;2022-10-03T05:43:22;8.10;;;0.90;;
9056;SDS011;4563;54.756;9.400;2022-10-03T05:45:57;13.47;;;0.87;;
9056;SDS011;4563;54.756;9.400;2022-10-03T05:48:30;7.87;;;1.20;;
9056;SDS011;4563;54.756;9.400;2022-10-03T05:51:21;8.07;;;0.87;;
9056;SDS011;4563;54.756;9.400;2022-10-03T05:54:19;5.37;;;0.70;;
9056;SDS011;4563;54.756;9.400;2022-10-03T05:57:20;6.80;;;0.80;;
9056;SDS011;4563;54.756;9.400;2022-10-03T06:00:07;4.53;;;1.07;;
9056;SDS011;4563;54.756;9.400;2022-10-03T06:03:04;9.27;;;1.00;;
9056;SDS011;4563;54.756;9.400;2022-10-03T06:05:58;7.13;;;0.90;;
9056;SDS011;4563;54.756;9.400;2022-10-03T06:11:53;10.63;;;1.10;;
9056;SDS011;4563;54.756;9.400;2022-10-03T06:14:40;8.90;;;1.00;;
9056;SDS011;4563;54.756;9.400;2022-10-03T06:23:43;9.10;;;0.83;;
9056;SDS011;4563;54.756;9.400;2022-10-03T06:26:26;4.90;;;0.83;;
9056;SDS011;4563;54.756;9.400;2022-10-03T06:29:14;7.70;;;1.00;;
9056;SDS011;4563;54.756;9.400;2022-10-03T06:35:10;10.53;;;1.53;;
9056;SDS011;4563;54.756;9.400;2022-10-03T06:38:22;5.73;;;0.80;;
9056;SDS011;4563;54.756;9.400;2022-10-03T06:41:16;18.87;;;3.37;;
9056;SDS011;4563;54.756;9.400;2022-10-03T06:44:22;11.90;;;2.30;;
9056;SDS011;4563;54.756;9.400;2022-10-03T06:53:17;11.90;;;1.37;;
9056;SDS011;4563;54.756;9.400;2022-10-03T06:59:09;12.03;;;1.40;;
9056;SDS011;4563;54.756;9.400;2022-10-03T07:01:58;12.37;;;0.90;;
9056;SDS011;4563;54.756;9.400;2022-10-03T07:04:59;8.77;;;1.00;;
9056;SDS011;4563;54.756;9.400;2022-10-03T07:07:57;8.33;;;1.40;;
9056;SDS011;4563;54.756;9.400;2022-10-03T07:10:45;10.90;;;1.30;;
9056;SDS011;4563;54.756;9.400;2022-10-03T07:13:35;15.87;;;1.40;;
9056;SDS011;4563;54.756;9.400;2022-10-03T07:16:54;13.40;;;1.23;;
9056;SDS011;4563;54.756;9.400;2022-10-03T07:19:54;13.60;;;1.20;;
9056;SDS011;4563;54.756;9.400;2022-10-03T07:23:18;7.37;;;1.20;;
9056;SDS011;4563;54.756;9.400;2022-10-03T07:26:14;6.27;;;1.30;;
9056;SDS011;4563;54.756;9.400;2022-10-03T07:29:17;14.87;;;2.33;;
9056;SDS011;4563;54.756;9.400;2022-10-03T07:31:55;8.90;;;1.57;;
9056;SDS011;4563;54.756;9.400;2022-10-03T07:37:52;8.53;;;1.13;;
9056;SDS011;4563;54.756;9.400;2022-10-03T07:41:00;13.00;;;1.20;;
9056;SDS011;4563;54.756;9.400;2022-10-03T07:43:49;9.27;;;1.20;;
9056;SDS011;4563;54.756;9.400;2022-10-03T07:49:56;12.13;;;1.57;;
9056;SDS011;4563;54.756;9.400;2022-10-03T07:53:09;9.33;;;1.60;;
9056;SDS011;4563;54.756;9.400;2022-10-03T07:56:02;12.17;;;1.07;;
9056;SDS011;4563;54.756;9.400;2022-10-03T07:58:57;7.87;;;0.93;;
9056;SDS011;4563;54.756;9.400;2022-10-03T08:01:57;10.63;;;1.47;;
9056;SDS011;4563;54.756;9.400;2022-10-03T08:08:24;5.93;;;1.20;;
9056;SDS011;4563;54.756;9.400;2022-10-03T08:11:30;9.07;;;1.00;;
9056;SDS011;4563;54.756;9.400;2022-10-03T08:14:23;12.57;;;1.30;;
9056;SDS011;4563;54.756;9.400;2022-10-03T08:22:14;12.07;;;1.87;;
9056;SDS011;4563;54.756;9.400;2022-10-03T08:25:04;11.77;;;1.17;;
9056;SDS011;4563;54.756;9.400;2022-10-03T08:27:58;4.70;;;0.77;;
9056;SDS011;4563;54.756;9.400;2022-10-03T08:30:50;7.10;;;0.90;;
9056;SDS011;4563;54.756;9.400;2022-10-03T08:33:36;13.87;;;1.50;;
9056;SDS011;4563;54.756;9.400;2022-10-03T08:36:29;6.43;;;1.73;;
9056;SDS011;4563;54.756;9.400;2022-10-03T08:39:19;7.87;;;1.07;;
9056;SDS011;4563;54.756;9.400;2022-10-03T08:42:14;7.40;;;1.00;;
9056;SDS011;4563;54.756;9.400;2022-10-03T08:45:16;11.10;;;1.63;;
9056;SDS011;4563;54.756;9.400;2022-10-03T08:54:12;6.37;;;1.43;;
9056;SDS011;4563;54.756;9.400;2022-10-03T08:57:03;6.67;;;1.23;;
9056;SDS011;4563;54.756;9.400;2022-10-03T09:00:00;9.37;;;1.10;;
9056;SDS011;4563;54.756;9.400;2022-10-03T09:12:04;6.73;;;1.10;;
9056;SDS011;4563;54.756;9.400;2022-10-03T09:14:53;5.00;;;1.17;;
9056;SDS011;4563;54.756;9.400;2022-10-03T09:17:35;12.10;;;0.90;;
9056;SDS011;4563;54.756;9.400;2022-10-03T09:20:34;7.70;;;1.40;;
9056;SDS011;4563;54.756;9.400;2022-10-03T09:29:30;5.70;;;1.00;;
9056;SDS011;4563;54.756;9.400;2022-10-03T09:35:36;11.43;;;1.40;;
9056;SDS011;4563;54.756;9.400;2022-10-03T09:38:30;9.17;;;0.97;;
9056;SDS011;4563;54.756;9.400;2022-10-03T09:47:28;7.50;;;1.17;;
9056;SDS011;4563;54.756;9.400;2022-10-03T09:50:34;5.90;;;0.90;;
9056;SDS011;4563;54.756;9.400;2022-10-03T09:53:28;5.70;;;1.20;;
9056;SDS011;4563;54.756;9.400;2022-10-03T09:56:20;8.97;;;0.90;;
9056;SDS011;4563;54.756;9.400;2022-10-03T09:59:11;6.67;;;1.20;;
9056;SDS011;4563;54.756;9.400;2022-10-03T10:02:00;7.63;;;1.27;;
9056;SDS011;4563;54.756;9.400;2022-10-03T10:04:47;7.50;;;1.37;;
9056;SDS011;4563;54.756;9.400;2022-10-03T10:16:48;5.93;;;0.97;;
9056;SDS011;4563;54.756;9.400;2022-10-03T10:19:50;4.87;;;1.00;;
9056;SDS011;4563;54.756;9.400;2022-10-03T10:25:55;9.07;;;0.87;;
9056;SDS011;4563;54.756;9.400;2022-10-03T10:29:01;6.57;;;0.67;;
9056;SDS011;4563;54.756;9.400;2022-10-03T10:41:15;7.50;;;0.90;;
9056;SDS011;4563;54.756;9.400;2022-10-03T10:44:29;2.10;;;0.70;;
9056;SDS011;4563;54.756;9.400;2022-10-03T10:57:04;3.57;;;0.60;;
9056;SDS011;4563;54.756;9.400;2022-10-03T11:06:16;2.90;;;0.60;;
9056;SDS011;4563;54.756;9.400;2022-10-03T11:09:22;2.83;;;0.73;;
9056;SDS011;4563;54.756;9.400;2022-10-03T11:28:21;5.30;;;1.33;;
9056;SDS011;4563;54.756;9.400;2022-10-03T11:34:39;4.53;;;0.70;;
9056;SDS011;4563;54.756;9.400;2022-10-03T11:37:34;2.97;;;0.60;;
9056;SDS011;4563;54.756;9.400;2022-10-03T11:40:34;3.77;;;0.60;;
9056;SDS011;4563;54.756;9.400;2022-10-03T11:46:21;4.13;;;0.80;;
9056;SDS011;4563;54.756;9.400;2022-10-03T11:48:58;4.73;;;0.93;;
9056;SDS011;4563;54.756;9.400;2022-10-03T11:51:36;5.80;;;1.07;;
9056;SDS011;4563;54.756;9.400;2022-10-03T11:54:13;8.27;;;0.90;;
9056;SDS011;4563;54.756;9.400;2022-10-03T11:56:47;6.63;;;0.93;;
9056;SDS011;4563;54.756;9.400;2022-10-03T11:59:24;5.23;;;1.00;;
9056;SDS011;4563;54.756;9.400;2022-10-03T12:02:13;8.20;;;1.00;;
9056;SDS011;4563;54.756;9.400;2022-10-03T12:04:49;2.67;;;0.60;;
9056;SDS011;4563;54.756;9.400;2022-10-03T12:10:35;3.73;;;0.90;;
9056;SDS011;4563;54.756;9.400;2022-10-03T12:13:12;5.23;;;0.87;;
9056;SDS011;4563;54.756;9.400;2022-10-03T12:15:46;3.43;;;0.60;;
9056;SDS011;4563;54.756;9.400;2022-10-03T12:18:18;7.77;;;0.77;;
9056;SDS011;4563;54.756;9.400;2022-10-03T12:21:09;5.47;;;1.50;;
9056;SDS011;4563;54.756;9.400;2022-10-03T12:23:56;3.93;;;0.93;;
9056;SDS011;4563;54.756;9.400;2022-10-03T12:26:39;6.97;;;0.90;;
9056;SDS011;4563;54.756;9.400;2022-10-03T12:29:13;2.73;;;0.60;;
9056;SDS011;4563;54.756;9.400;2022-10-03T12:31:48;2.40;;;0.50;;
9056;SDS011;4563;54.756;9.400;2022-10-03T12:34:30;4.03;;;0.83;;
9056;SDS011;4563;54.756;9.400;2022-10-03T12:37:07;4.33;;;0.67;;
9056;SDS011;4563;54.756;9.400;2022-10-03T12:39:55;6.07;;;1.00;;
9056;SDS011;4563;54.756;9.400;2022-10-03T12:42:33;4.47;;;0.80;;
9056;SDS011;4563;54.756;9.400;2022-10-03T12:45:09;3.53;;;0.80;;
9056;SDS011;4563;54.756;9.400;2022-10-03T12:47:52;3.03;;;0.87;;
9056;SDS011;4563;54.756;9.400;2022-10-03T12:50:29;4.07;;;1.00;;
9056;SDS011;4563;54.756;9.400;2022-10-03T12:53:23;3.27;;;0.87;;
9056;SDS011;4563;54.756;9.400;2022-10-03T12:56:06;7.03;;;0.77;;
9056;SDS011;4563;54.756;9.400;2022-10-03T12:58:42;9.20;;;0.77;;
9056;SDS011;4563;54.756;9.400;2022-10-03T13:01:26;8.20;;;1.00;;
9056;SDS011;4563;54.756;9.400;2022-10-03T13:04:12;8.73;;;0.70;;
9056;SDS011;4563;54.756;9.400;2022-10-03T13:06:50;4.93;;;1.37;;
9056;SDS011;4563;54.756;9.400;2022-10-03T13:09:29;4.07;;;0.87;;
9056;SDS011;4563;54.756;9.400;2022-10-03T13:12:16;4.33;;;1.13;;
9056;SDS011;4563;54.756;9.400;2022-10-03T13:18:00;5.20;;;1.13;;
9056;SDS011;4563;54.756;9.400;2022-10-03T13:20:38;6.30;;;1.50;;
9056;SDS011;4563;54.756;9.400;2022-10-03T13:23:10;4.90;;;1.20;;
9056;SDS011;4563;54.756;9.400;2022-10-03T13:25:49;7.03;;;1.07;;
9056;SDS011;4563;54.756;9.400;2022-10-03T13:28:28;6.27;;;1.20;;
9056;SDS011;4563;54.756;9.400;2022-10-03T13:31:01;6.17;;;1.03;;
9056;SDS011;4563;54.756;9.400;2022-10-03T13:33:38;8.17;;;1.30;;
9056;SDS011;4563;54.756;9.400;2022-10-03T13:36:15;8.70;;;0.73;;
9056;SDS011;4563;54.756;9.400;2022-10-03T13:39:03;5.07;;;1.00;;
9056;SDS011;4563;54.756;9.400;2022-10-03T13:41:54;3.37;;;1.00;;
9056;SDS011;4563;54.756;9.400;2022-10-03T13:44:39;7.13;;;1.20;;
9056;SDS011;4563;54.756;9.400;2022-10-03T13:47:20;6.87;;;1.03;;
9056;SDS011;4563;54.756;9.400;2022-10-03T13:49:54;6.70;;;1.43;;
9056;SDS011;4563;54.756;9.400;2022-10-03T13:52:30;4.73;;;0.87;;
9056;SDS011;4563;54.756;9.400;2022-10-03T13:55:14;5.50;;;0.93;;
9056;SDS011;4563;54.756;9.400;2022-10-03T13:57:58;7.93;;;1.30;;
9056;SDS011;4563;54.756;9.400;2022-10-03T14:00:54;6.87;;;1.10;;
9056;SDS011;4563;54.756;9.400;2022-10-03T14:03:40;5.60;;;1.20;;
9056;SDS011;4563;54.756;9.400;2022-10-03T14:06:20;6.77;;;0.83;;
9056;SDS011;4563;54.756;9.400;2022-10-03T14:09:03;6.30;;;1.27;;
9056;SDS011;4563;54.756;9.400;2022-10-03T14:11:53;4.53;;;0.83;;
9056;SDS011;4563;54.756;9.400;2022-10-03T14:17:37;3.80;;;1.00;;
9056;SDS011;4563;54.756;9.400;2022-10-03T14:20:16;6.93;;;1.00;;
9056;SDS011;4563;54.756;9.400;2022-10-03T14:22:53;8.13;;;0.87;;
9056;SDS011;4563;54.756;9.400;2022-10-03T14:25:46;7.50;;;1.37;;
9056;SDS011;4563;54.756;9.400;2022-10-03T14:28:24;9.37;;;1.00;;
9056;SDS011;4563;54.756;9.400;2022-10-03T14:31:03;7.03;;;1.27;;
9056;SDS011;4563;54.756;9.400;2022-10-03T14:33:44;9.03;;;1.30;;
9056;SDS011;4563;54.756;9.400;2022-10-03T14:36:27;5.07;;;0.90;;
9056;SDS011;4563;54.756;9.400;2022-10-03T14:39:11;9.87;;;1.13;;
9056;SDS011;4563;54.756;9.400;2022-10-03T14:42:07;3.93;;;0.97;;
9056;SDS011;4563;54.756;9.400;2022-10-03T14:44:57;9.37;;;1.30;;
9056;SDS011;4563;54.756;9.400;2022-10-03T14:47:32;5.47;;;1.00;;
9056;SDS011;4563;54.756;9.400;2022-10-03T14:50:01;5.20;;;1.03;;
9056;SDS011;4563;54.756;9.400;2022-10-03T14:52:31;4.07;;;0.93;;
9056;SDS011;4563;54.756;9.400;2022-10-03T14:55:06;10.10;;;1.63;;
9056;SDS011;4563;54.756;9.400;2022-10-03T14:57:41;3.43;;;0.90;;
9056;SDS011;4563;54.756;9.400;2022-10-03T15:00:22;5.70;;;1.37;;
9056;SDS011;4563;54.756;9.400;2022-10-03T15:03:18;8.23;;;0.90;;
9056;SDS011;4563;54.756;9.400;2022-10-03T15:09:02;3.63;;;0.97;;
9056;SDS011;4563;54.756;9.400;2022-10-03T15:11:51;8.47;;;1.47;;
9056;SDS011;4563;54.756;9.400;2022-10-03T15:14:32;6.13;;;1.10;;
9056;SDS011;4563;54.756;9.400;2022-10-03T15:17:03;6.73;;;1.00;;
9056;SDS011;4563;54.756;9.400;2022-10-03T15:19:44;6.50;;;1.10;;
9056;SDS011;4563;54.756;9.400;2022-10-03T15:22:26;6.17;;;1.37;;
9056;SDS011;4563;54.756;9.400;2022-10-03T15:25:17;2.67;;;0.60;;
9056;SDS011;4563;54.756;9.400;2022-10-03T15:27:54;8.17;;;1.13;;
9056;SDS011;4563;54.756;9.400;2022-10-03T15:30:48;5.83;;;1.10;;
9056;SDS011;4563;54.756;9.400;2022-10-03T15:33:27;8.37;;;1.10;;
9056;SDS011;4563;54.756;9.400;2022-10-03T15:35:59;7.63;;;1.53;;
9056;SDS011;4563;54.756;9.400;2022-10-03T15:38:47;7.97;;;1.93;;
9056;SDS011;4563;54.756;9.400;2022-10-03T15:41:25;8.67;;;1.40;;
9056;SDS011;4563;54.756;9.400;2022-10-03T15:44:02;9.43;;;1.33;;
9056;SDS011;4563;54.756;9.400;2022-10-03T15:46:45;8.90;;;1.40;;
9056;SDS011;4563;54.756;9.400;2022-10-03T15:49:27;9.13;;;1.40;;
9056;SDS011;4563;54.756;9.400;2022-10-03T15:52:13;6.57;;;1.10;;
9056;SDS011;4563;54.756;9.400;2022-10-03T15:55:28;7.07;;;1.10;;
9056;SDS011;4563;54.756;9.400;2022-10-03T15:58:17;8.53;;;1.30;;
9056;SDS011;4563;54.756;9.400;2022-10-03T16:00:59;6.53;;;1.17;;
9056;SDS011;4563;54.756;9.400;2022-10-03T16:03:36;7.90;;;2.47;;
9056;SDS011;4563;54.756;9.400;2022-10-03T16:06:16;5.23;;;1.23;;
9056;SDS011;4563;54.756;9.400;2022-10-03T16:08:55;4.90;;;1.03;;
9056;SDS011;4563;54.756;9.400;2022-10-03T16:11:46;5.40;;;1.50;;
9056;SDS011;4563;54.756;9.400;2022-10-03T16:14:46;11.00;;;1.50;;
9056;SDS011;4563;54.756;9.400;2022-10-03T16:17:36;5.60;;;1.20;;
9056;SDS011;4563;54.756;9.400;2022-10-03T16:20:17;4.87;;;1.00;;
9056;SDS011;4563;54.756;9.400;2022-10-03T16:23:10;4.03;;;1.00;;
9056;SDS011;4563;54.756;9.400;2022-10-03T16:28:40;8.63;;;1.30;;
9056;SDS011;4563;54.756;9.400;2022-10-03T16:31:12;9.03;;;2.03;;
9056;SDS011;4563;54.756;9.400;2022-10-03T16:33:48;6.13;;;1.20;;
9056;SDS011;4563;54.756;9.400;2022-10-03T16:36:17;8.40;;;1.70;;
9056;SDS011;4563;54.756;9.400;2022-10-03T16:38:50;8.93;;;1.50;;
9056;SDS011;4563;54.756;9.400;2022-10-03T16:41:21;8.00;;;2.00;;
9056;SDS011;4563;54.756;9.400;2022-10-03T16:43:54;10.40;;;1.97;;
9056;SDS011;4563;54.756;9.400;2022-10-03T16:46:23;8.37;;;1.27;;
9056;SDS011;4563;54.756;9.400;2022-10-03T16:48:52;5.37;;;1.20;;
9056;SDS011;4563;54.756;9.400;2022-10-03T16:51:40;10.13;;;1.70;;
9056;SDS011;4563;54.756;9.400;2022-10-03T16:54:10;8.67;;;1.70;;
9056;SDS011;4563;54.756;9.400;2022-10-03T16:56:42;8.90;;;1.50;;
9056;SDS011;4563;54.756;9.400;2022-10-03T16:59:13;11.50;;;1.53;;
9056;SDS011;4563;54.756;9.400;2022-10-03T17:01:44;7.57;;;1.33;;
9056;SDS011;4563;54.756;9.400;2022-10-03T17:04:19;12.33;;;1.73;;
9056;SDS011;4563;54.756;9.400;2022-10-03T17:06:48;10.77;;;1.37;;
9056;SDS011;4563;54.756;9.400;2022-10-03T17:09:20;8.70;;;1.73;;
9056;SDS011;4563;54.756;9.400;2022-10-03T17:11:55;11.50;;;1.93;;
9056;SDS011;4563;54.756;9.400;2022-10-03T17:14:26;11.57;;;2.40;;
9056;SDS011;4563;54.756;9.400;2022-10-03T17:17:01;6.23;;;1.40;;
9056;SDS011;4563;54.756;9.400;2022-10-03T17:19:32;6.90;;;1.30;;
9056;SDS011;4563;54.756;9.400;2022-10-03T17:22:04;9.00;;;1.60;;
9056;SDS011;4563;54.756;9.400;2022-10-03T17:24:41;8.57;;;1.63;;
9056;SDS011;4563;54.756;9.400;2022-10-03T17:27:17;8.10;;;1.83;;
9056;SDS011;4563;54.756;9.400;2022-10-03T17:29:50;7.63;;;1.50;;
9056;SDS011;4563;54.756;9.400;2022-10-03T17:32:22;8.83;;;1.60;;
9056;SDS011;4563;54.756;9.400;2022-10-03T17:34:55;7.60;;;1.20;;
9056;SDS011;4563;54.756;9.400;2022-10-03T17:40:21;7.80;;;1.77;;
9056;SDS011;4563;54.756;9.400;2022-10-03T17:43:05;6.73;;;1.20;;
9056;SDS011;4563;54.756;9.400;2022-10-03T17:45:43;10.13;;;1.67;;
9056;SDS011;4563;54.756;9.400;2022-10-03T17:48:15;12.67;;;1.93;;
9056;SDS011;4563;54.756;9.400;2022-10-03T17:50:55;5.43;;;1.20;;
9056;SDS011;4563;54.756;9.400;2022-10-03T17:53:28;7.87;;;1.30;;
9056;SDS011;4563;54.756;9.400;2022-10-03T17:56:00;11.13;;;3.57;;
9056;SDS011;4563;54.756;9.400;2022-10-03T17:58:34;12.90;;;3.13;;
9056;SDS011;4563;54.756;9.400;2022-10-03T18:01:07;17.87;;;7.07;;
9056;SDS011;4563;54.756;9.400;2022-10-03T18:03:38;18.03;;;5.13;;
9056;SDS011;4563;54.756;9.400;2022-10-03T18:06:32;18.50;;;4.00;;
9056;SDS011;4563;54.756;9.400;2022-10-03T18:09:20;19.60;;;5.93;;
9056;SDS011;4563;54.756;9.400;2022-10-03T18:11:55;10.70;;;2.70;;
9056;SDS011;4563;54.756;9.400;2022-10-03T18:14:35;20.07;;;4.33;;
9056;SDS011;4563;54.756;9.400;2022-10-03T18:17:13;19.23;;;3.63;;
9056;SDS011;4563;54.756;9.400;2022-10-03T18:19:48;13.40;;;2.37;;
9056;SDS011;4563;54.756;9.400;2022-10-03T18:22:23;10.73;;;1.57;;
9056;SDS011;4563;54.756;9.400;2022-10-03T18:24:55;12.10;;;2.20;;
9056;SDS011;4563;54.756;9.400;2022-10-03T18:28:06;10.13;;;1.97;;
9056;SDS011;4563;54.756;9.400;2022-10-03T18:30:43;13.40;;;1.93;;
9056;SDS011;4563;54.756;9.400;2022-10-03T18:33:15;8.03;;;1.70;;
9056;SDS011;4563;54.756;9.400;2022-10-03T18:35:46;9.50;;;1.50;;
9056;SDS011;4563;54.756;9.400;2022-10-03T18:38:16;6.90;;;1.30;;
9056;SDS011;4563;54.756;9.400;2022-10-03T18:40:50;13.70;;;2.13;;
9056;SDS011;4563;54.756;9.400;2022-10-03T18:43:24;8.50;;;2.90;;
9056;SDS011;4563;54.756;9.400;2022-10-03T18:45:57;12.63;;;1.77;;
9056;SDS011;4563;54.756;9.400;2022-10-03T18:48:33;13.30;;;3.10;;
9056;SDS011;4563;54.756;9.400;2022-10-03T18:51:09;10.40;;;2.13;;
9056;SDS011;4563;54.756;9.400;2022-10-03T18:53:42;8.50;;;2.23;;
9056;SDS011;4563;54.756;9.400;2022-10-03T18:56:16;11.10;;;1.73;;
9056;SDS011;4563;54.756;9.400;2022-10-03T18:58:54;7.30;;;2.07;;
9056;SDS011;4563;54.756;9.400;2022-10-03T19:01:30;9.90;;;2.80;;
9056;SDS011;4563;54.756;9.400;2022-10-03T19:04:06;10.13;;;1.50;;
9056;SDS011;4563;54.756;9.400;2022-10-03T19:06:36;3.97;;;1.07;;
9056;SDS011;4563;54.756;9.400;2022-10-03T19:09:06;15.33;;;2.37;;
9056;SDS011;4563;54.756;9.400;2022-10-03T19:11:44;9.83;;;1.70;;
9056;SDS011;4563;54.756;9.400;2022-10-03T19:14:16;11.37;;;2.13;;
9056;SDS011;4563;54.756;9.400;2022-10-03T19:17:01;8.77;;;1.20;;
9056;SDS011;4563;54.756;9.400;2022-10-03T19:19:48;8.53;;;2.13;;
9056;SDS011;4563;54.756;9.400;2022-10-03T19:22:20;7.70;;;1.30;;
9056;SDS011;4563;54.756;9.400;2022-10-03T19:24:50;7.23;;;1.37;;
9056;SDS011;4563;54.756;9.400;2022-10-03T19:27:19;5.00;;;1.20;;
9056;SDS011;4563;54.756;9.400;2022-10-03T19:29:50;7.83;;;1.93;;
9056;SDS011;4563;54.756;9.400;2022-10-03T19:32:24;10.43;;;1.67;;
9056;SDS011;4563;54.756;9.400;2022-10-03T19:34:57;8.13;;;1.37;;
9056;SDS011;4563;54.756;9.400;2022-10-03T19:37:32;9.97;;;2.83;;
9056;SDS011;4563;54.756;9.400;2022-10-03T19:40:23;13.40;;;2.67;;
9056;SDS011;4563;54.756;9.400;2022-10-03T19:43:20;5.63;;;1.60;;
9056;SDS011;4563;54.756;9.400;2022-10-03T19:46:13;7.40;;;1.20;;
9056;SDS011;4563;54.756;9.400;2022-10-03T19:48:51;11.67;;;1.77;;
9056;SDS011;4563;54.756;9.400;2022-10-03T19:51:28;14.03;;;1.83;;
9056;SDS011;4563;54.756;9.400;2022-10-03T19:53:56;8.67;;;1.23;;
9056;SDS011;4563;54.756;9.400;2022-10-03T19:56:24;7.80;;;1.50;;
9056;SDS011;4563;54.756;9.400;2022-10-03T19:58:57;9.33;;;1.50;;
9056;SDS011;4563;54.756;9.400;2022-10-03T20:01:30;8.07;;;1.63;;
9056;SDS011;4563;54.756;9.400;2022-10-03T20:04:08;10.90;;;1.60;;
9056;SDS011;4563;54.756;9.400;2022-10-03T20:06:37;7.23;;;1.67;;
9056;SDS011;4563;54.756;9.400;2022-10-03T20:09:14;8.97;;;1.93;;
9056;SDS011;4563;54.756;9.400;2022-10-03T20:11:47;8.97;;;1.20;;
9056;SDS011;4563;54.756;9.400;2022-10-03T20:14:17;11.30;;;1.40;;
9056;SDS011;4563;54.756;9.400;2022-10-03T20:16:50;10.10;;;1.97;;
9056;SDS011;4563;54.756;9.400;2022-10-03T20:19:22;7.33;;;1.57;;
9056;SDS011;4563;54.756;9.400;2022-10-03T20:21:50;9.03;;;1.10;;
9056;SDS011;4563;54.756;9.400;2022-10-03T20:24:20;7.83;;;1.27;;
9056;SDS011;4563;54.756;9.400;2022-10-03T20:26:54;9.90;;;1.33;;
9056;SDS011;4563;54.756;9.400;2022-10-03T20:29:34;8.67;;;1.40;;
9056;SDS011;4563;54.756;9.400;2022-10-03T20:32:04;8.50;;;1.10;;
9056;SDS011;4563;54.756;9.400;2022-10-03T20:34:33;6.47;;;1.63;;